createdAt,value
2022-11-19T00:01:43.353Z,16.3
2022-11-19T00:07:20.944Z,16.3
2022-11-19T00:13:04.549Z,16.3
2022-11-19T00:23:49.336Z,16.3
2022-11-19T00:29:15.494Z,16.3
2022-11-19T00:35:19.985Z,16.3
2022-11-19T00:40:27.404Z,16.3
2022-11-19T00:46:05.974Z,16.3
2022-11-19T00:51:44.134Z,16.3
2022-11-19T01:02:44.026Z,16.3
2022-11-19T01:08:06.999Z,16.3
2022-11-19T01:13:44.264Z,16.3
2022-11-19T01:19:22.167Z,16.3
2022-11-19T01:25:00.489Z,16.3
2022-11-19T01:30:26.755Z,16.3
2022-11-19T01:35:48.918Z,16.3
2022-11-19T01:41:26.850Z,16.3
2022-11-19T01:52:26.536Z,16.3
2022-11-19T01:58:04.566Z,16.3
2022-11-19T02:03:42.665Z,16.3
2022-11-19T02:14:43.091Z,16.3
2022-11-19T02:20:20.295Z,16.3
2022-11-19T02:26:03.281Z,16.3
2022-11-19T02:31:24.731Z,16.3
2022-11-19T02:37:01.288Z,16.3
2022-11-19T02:42:39.622Z,16.3
2022-11-19T02:47:46.650Z,16.3
2022-11-19T02:53:23.961Z,16.3
2022-11-19T02:58:45.616Z,16.3
2022-11-19T03:04:24.943Z,16.3
2022-11-19T03:09:46.352Z,16.3
2022-11-19T03:15:24.075Z,16.3
2022-11-19T03:20:46.069Z,16.3
2022-11-19T03:26:07.554Z,16.3
2022-11-19T03:31:30.311Z,16.3
2022-11-19T03:37:07.591Z,16.3
2022-11-19T03:42:46.096Z,16.3
2022-11-19T03:48:23.009Z,16.3
2022-11-19T03:54:02.642Z,16.4
2022-11-19T03:59:45.679Z,16.3
2022-11-19T04:05:23.513Z,16.3
2022-11-19T04:16:38.362Z,16.4
2022-11-19T04:27:07.636Z,16.3
2022-11-19T04:37:51.412Z,16.3
2022-11-19T04:48:36.046Z,16.4
2022-11-19T04:54:20.088Z,16.4
2022-11-19T04:59:58.998Z,16.3
2022-11-19T05:05:21.502Z,16.4
2022-11-19T05:10:44.475Z,16.4
2022-11-19T05:16:26.747Z,16.3
2022-11-19T05:22:03.957Z,16.3
2022-11-19T05:27:41.660Z,16.3
2022-11-19T05:33:31.161Z,16.4
2022-11-19T05:39:09.829Z,16.4
2022-11-19T05:44:47.388Z,16.4
2022-11-19T05:50:25.898Z,16.3
2022-11-19T05:56:03.811Z,16.4
2022-11-19T06:01:42.416Z,16.4
2022-11-19T06:07:20.826Z,16.3
2022-11-19T06:13:02.005Z,16.4
2022-11-19T06:18:40.108Z,16.3
2022-11-19T06:29:42.581Z,16.4
2022-11-19T06:35:20.605Z,16.4
2022-11-19T06:41:05.524Z,16.4
2022-11-19T06:46:48.384Z,16.4
2022-11-19T06:52:27.639Z,16.4
2022-11-19T06:58:07.696Z,16.4
2022-11-19T07:03:45.648Z,16.4
2022-11-19T07:09:26.036Z,16.3
2022-11-19T07:15:04.697Z,16.4
2022-11-19T07:20:27.786Z,16.4
2022-11-19T07:26:07.537Z,16.4
2022-11-19T07:31:45.602Z,16.4
2022-11-19T07:37:24.485Z,16.4
2022-11-19T07:43:08.634Z,16.4
2022-11-19T07:48:52.215Z,16.4
2022-11-19T07:54:19.445Z,16.3
2022-11-19T07:59:48.864Z,16.4
2022-11-19T08:05:31.990Z,16.4
2022-11-19T08:11:09.520Z,16.4
2022-11-19T08:16:47.596Z,16.4
2022-11-19T08:22:30.323Z,16.4
2022-11-19T08:28:08.025Z,16.4
2022-11-19T08:33:48.840Z,16.4
2022-11-19T08:39:28.561Z,16.4
2022-11-19T08:45:06.216Z,16.4
2022-11-19T08:50:44.087Z,16.4
2022-11-19T08:56:22.409Z,16.4
2022-11-19T09:02:03.432Z,16.4
2022-11-19T09:07:48.017Z,16.4
2022-11-19T09:13:10.548Z,16.4
2022-11-19T09:18:53.019Z,16.4
2022-11-19T09:24:30.504Z,16.4
2022-11-19T09:30:14.251Z,16.4
2022-11-19T09:35:51.779Z,16.4
2022-11-19T09:41:29.829Z,16.4
2022-11-19T09:47:14.243Z,16.4
2022-11-19T09:52:51.285Z,16.4
2022-11-19T09:58:29.388Z,16.4
2022-11-19T10:03:52.420Z,16.4
2022-11-19T10:09:30.079Z,16.4
2022-11-19T10:20:42.085Z,16.4
2022-11-19T10:26:21.335Z,16.4
2022-11-19T10:31:59.447Z,16.4
2022-11-19T10:37:37.461Z,16.4
2022-11-19T10:43:23.277Z,16.3
2022-11-19T10:49:01.578Z,15.8
2022-11-19T10:54:43.159Z,15.3
2022-11-19T11:00:10.445Z,15.3
2022-11-19T11:05:35.741Z,15.3
2022-11-19T11:11:15.609Z,15.3
2022-11-19T11:16:54.503Z,15.4
2022-11-19T11:22:32.715Z,15.3
2022-11-19T11:28:15.201Z,15.4
2022-11-19T11:33:58.285Z,15.4
2022-11-19T11:39:25.451Z,15.4
2022-11-19T11:45:07.917Z,15.4
2022-11-19T11:50:52.463Z,15.3
2022-11-19T11:56:15.001Z,15.3
2022-11-19T12:01:21.956Z,15.4
2022-11-19T12:06:58.141Z,15.4
2022-11-19T12:12:41.839Z,15.4
2022-11-19T12:18:25.106Z,15.4
2022-11-19T12:23:48.012Z,15.4
2022-11-19T12:29:25.481Z,15.4
2022-11-19T12:35:02.970Z,15.4
2022-11-19T12:40:41.943Z,15.3
2022-11-19T12:46:19.900Z,15.5
2022-11-19T12:51:59.866Z,15.4
2022-11-19T12:57:43.345Z,15.5
2022-11-19T13:03:21.596Z,15.5
2022-11-19T13:08:47.552Z,15.5
2022-11-19T13:13:54.711Z,15.5
2022-11-19T13:19:32.949Z,15.6
2022-11-19T13:25:10.442Z,15.5
2022-11-19T13:30:48.245Z,15.5
2022-11-19T13:36:26.762Z,15.6
2022-11-19T13:42:09.759Z,15.6
2022-11-19T13:48:14.964Z,15.6
2022-11-19T13:53:56.178Z,15.6
2022-11-19T13:59:34.879Z,15.6
2022-11-19T14:05:12.295Z,15.6
2022-11-19T14:10:55.307Z,15.6
2022-11-19T14:16:17.529Z,15.6
2022-11-19T14:21:29.153Z,15.6
2022-11-19T14:26:52.465Z,15.6
2022-11-19T14:32:29.936Z,15.6
2022-11-19T14:38:08.702Z,15.6
2022-11-19T14:43:51.219Z,15.6
2022-11-19T14:49:14.697Z,15.6
2022-11-19T14:54:53.081Z,15.7
2022-11-19T15:00:31.136Z,15.7
2022-11-19T15:06:09.316Z,15.7
2022-11-19T15:11:53.510Z,15.7
2022-11-19T15:17:15.404Z,15.7
2022-11-19T15:22:36.964Z,15.7
2022-11-19T15:33:30.322Z,15.7
2022-11-19T15:39:28.175Z,15.7
2022-11-19T15:44:50.980Z,15.7
2022-11-19T15:49:58.027Z,15.8
2022-11-19T15:55:26.418Z,15.8
2022-11-19T16:00:49.199Z,15.8
2022-11-19T16:06:12.959Z,15.8
2022-11-19T16:11:37.218Z,15.8
2022-11-19T16:16:59.923Z,15.8
2022-11-19T16:22:28.377Z,15.8
2022-11-19T16:28:10.447Z,15.8
2022-11-19T16:33:48.930Z,15.8
2022-11-19T16:39:33.537Z,15.8
2022-11-19T16:50:34.363Z,15.8
2022-11-19T17:01:44.418Z,15.8
2022-11-19T17:07:22.463Z,15.8
2022-11-19T17:12:59.883Z,15.8
2022-11-19T17:18:28.874Z,15.8
2022-11-19T17:24:06.713Z,15.8
2022-11-19T17:29:33.454Z,15.8
2022-11-19T17:35:15.997Z,15.8
2022-11-19T17:40:38.351Z,15.9
2022-11-19T17:46:01.578Z,15.9
2022-11-19T17:56:58.180Z,15.9
2022-11-19T18:02:37.263Z,15.9
2022-11-19T18:08:17.291Z,15.9
2022-11-19T18:18:33.120Z,15.9
2022-11-19T18:24:13.087Z,15.9
2022-11-19T18:29:55.829Z,15.9
2022-11-19T18:35:19.474Z,15.9
2022-11-19T18:40:44.443Z,15.9
2022-11-19T18:46:29.260Z,15.9
2022-11-19T18:52:10.357Z,15.9
2022-11-19T18:57:49.856Z,15.9
2022-11-19T19:03:04.957Z,15.9
2022-11-19T19:08:35.223Z,15.9
2022-11-19T19:13:59.686Z,15.9
2022-11-19T19:19:43.004Z,15.9
2022-11-19T19:25:14.407Z,15.9
2022-11-19T19:30:53.717Z,15.9
2022-11-19T19:36:22.654Z,15.9
2022-11-19T19:42:02.689Z,15.9
2022-11-19T19:47:47.697Z,15.9
2022-11-19T19:53:27.348Z,15.9
2022-11-19T19:59:07.257Z,15.9
2022-11-19T20:04:32.423Z,15.9
2022-11-19T20:10:15.965Z,15.9
2022-11-19T20:21:23.800Z,16
2022-11-19T20:27:04.270Z,16
2022-11-19T20:32:44.172Z,16
2022-11-19T20:43:48.923Z,16
2022-11-19T20:49:33.386Z,16
2022-11-19T20:55:11.195Z,16
2022-11-19T21:00:53.500Z,16
2022-11-19T21:06:36.315Z,16
2022-11-19T21:12:04.552Z,16
2022-11-19T21:17:26.433Z,16
2022-11-19T21:23:08.194Z,16
2022-11-19T21:28:50.958Z,16
2022-11-19T21:34:29.721Z,16
2022-11-19T21:40:10.094Z,16
2022-11-19T21:45:48.841Z,16.1
2022-11-19T21:51:26.858Z,16
2022-11-19T21:57:10.101Z,16
2022-11-19T22:02:47.997Z,16.1
2022-11-19T22:08:25.891Z,16.1
2022-11-19T22:13:54.154Z,16.1
2022-11-19T22:19:16.611Z,16.1
2022-11-19T22:24:54.876Z,16.1
2022-11-19T22:30:38.744Z,16.1
2022-11-19T22:36:22.969Z,16.1
2022-11-19T22:41:45.024Z,16.1
2022-11-19T22:46:36.569Z,16.1
2022-11-19T22:52:14.580Z,16.1
2022-11-19T22:57:22.014Z,16.1
2022-11-19T23:02:45.430Z,16.1
2022-11-19T23:08:28.220Z,16.1
2022-11-19T23:13:51.189Z,16.1
2022-11-19T23:19:29.517Z,16.1
2022-11-19T23:25:10.064Z,16.1
2022-11-19T23:30:47.570Z,16.1
2022-11-19T23:36:31.849Z,16.1
2022-11-19T23:41:54.925Z,16.1
2022-11-19T23:47:37.650Z,16.1
2022-11-19T23:53:15.700Z,16.1
2022-11-19T23:58:54.456Z,16.1
